createdAt,value
2017-08-08T00:00:39.119Z,5.80
2017-08-08T00:03:05.475Z,6.47
2017-08-08T00:05:32.535Z,6.82
2017-08-08T00:07:58.833Z,5.80
2017-08-08T00:10:25.188Z,6.72
2017-08-08T00:12:52.287Z,6.40
2017-08-08T00:15:18.627Z,5.87
2017-08-08T00:17:44.924Z,6.25
2017-08-08T00:20:11.228Z,5.28
2017-08-08T00:22:37.546Z,5.47
2017-08-08T00:25:03.840Z,5.47
2017-08-08T00:27:30.167Z,5.90
2017-08-08T00:29:56.505Z,5.22
2017-08-08T00:32:22.874Z,6.28
2017-08-08T00:34:49.236Z,8.60
2017-08-08T00:37:16.272Z,6.30
2017-08-08T00:39:42.568Z,6.10
2017-08-08T00:42:08.905Z,6.40
2017-08-08T00:44:35.216Z,5.95
2017-08-08T00:47:01.575Z,6.15
2017-08-08T00:49:27.890Z,6.75
2017-08-08T00:51:54.271Z,7.10
2017-08-08T00:54:20.628Z,5.87
2017-08-08T00:56:46.923Z,5.50
2017-08-08T00:59:13.236Z,5.70
2017-08-08T01:01:40.319Z,5.68
2017-08-08T01:04:06.619Z,5.57
2017-08-08T01:06:33.683Z,9.38
2017-08-08T01:09:00.037Z,5.87
2017-08-08T01:11:26.332Z,5.80
2017-08-08T01:13:53.367Z,6.78
2017-08-08T01:16:19.693Z,6.40
2017-08-08T01:18:46.001Z,6.57
2017-08-08T01:21:12.314Z,7.07
2017-08-08T01:23:38.613Z,6.80
2017-08-08T01:26:04.927Z,6.40
2017-08-08T01:28:31.960Z,6.93
2017-08-08T01:30:58.299Z,6.30
2017-08-08T01:33:24.690Z,6.43
2017-08-08T01:35:51.032Z,7.80
2017-08-08T01:38:17.339Z,6.68
2017-08-08T01:40:43.661Z,6.70
2017-08-08T01:43:10.016Z,7.32
2017-08-08T01:45:36.352Z,6.32
2017-08-08T01:48:02.675Z,6.45
2017-08-08T01:50:29.016Z,7.20
2017-08-08T01:52:55.391Z,6.35
2017-08-08T01:55:21.724Z,7.50
2017-08-08T01:57:48.092Z,6.87
2017-08-08T02:00:14.440Z,6.70
2017-08-08T02:02:40.799Z,6.20
2017-08-08T02:05:07.184Z,6.37
2017-08-08T02:07:33.517Z,6.90
2017-08-08T02:09:59.891Z,7.30
2017-08-08T02:12:26.255Z,6.82
2017-08-08T02:14:52.604Z,6.60
2017-08-08T02:17:18.924Z,7.32
2017-08-08T02:19:45.391Z,7.22
2017-08-08T02:22:12.488Z,8.30
2017-08-08T02:24:38.816Z,6.25
2017-08-08T02:27:05.163Z,6.30
2017-08-08T02:29:31.548Z,6.95
2017-08-08T02:31:57.879Z,7.40
2017-08-08T02:34:24.230Z,6.20
2017-08-08T02:36:50.562Z,8.27
2017-08-08T02:39:17.611Z,6.85
2017-08-08T02:41:44.640Z,6.35
2017-08-08T02:44:10.981Z,7.28
2017-08-08T02:46:37.307Z,7.15
2017-08-08T02:49:03.629Z,8.13
2017-08-08T02:51:29.941Z,6.80
2017-08-08T02:53:56.282Z,7.25
2017-08-08T02:56:22.563Z,7.00
2017-08-08T02:58:48.920Z,7.05
2017-08-08T03:01:16.100Z,8.15
2017-08-08T03:03:42.442Z,7.72
2017-08-08T03:06:08.795Z,8.52
2017-08-08T03:08:35.084Z,7.87
2017-08-08T03:11:01.363Z,7.40
2017-08-08T03:13:27.718Z,7.03
2017-08-08T03:15:54.019Z,8.10
2017-08-08T03:18:20.344Z,7.15
2017-08-08T03:20:46.644Z,8.30
2017-08-08T03:23:13.688Z,8.20
2017-08-08T03:25:40.033Z,7.10
2017-08-08T03:28:07.149Z,7.43
2017-08-08T03:30:33.448Z,7.50
2017-08-08T03:32:59.799Z,7.32
2017-08-08T03:35:26.099Z,7.30
2017-08-08T03:37:52.380Z,7.47
2017-08-08T03:40:18.703Z,8.27
2017-08-08T03:42:45.039Z,7.53
2017-08-08T03:45:11.360Z,7.28
2017-08-08T03:47:37.639Z,7.22
2017-08-08T03:50:03.983Z,7.60
2017-08-08T03:52:30.284Z,7.25
2017-08-08T03:54:56.624Z,7.78
2017-08-08T03:57:22.915Z,7.05
2017-08-08T03:59:49.357Z,7.40
2017-08-08T04:02:15.688Z,7.20
2017-08-08T04:04:41.999Z,7.50
2017-08-08T04:07:08.327Z,7.40
2017-08-08T04:09:35.385Z,8.43
2017-08-08T04:12:01.686Z,7.20
2017-08-08T04:14:28.013Z,6.85
2017-08-08T04:16:54.302Z,7.60
2017-08-08T04:19:20.625Z,7.80
2017-08-08T04:21:46.942Z,7.15
2017-08-08T04:24:14.024Z,7.82
2017-08-08T04:26:40.368Z,7.03
2017-08-08T04:29:06.655Z,6.80
2017-08-08T04:31:33.731Z,5.82
2017-08-08T04:34:00.038Z,6.80
2017-08-08T04:36:27.069Z,6.20
2017-08-08T04:38:53.741Z,6.82
2017-08-08T04:41:20.055Z,6.18
2017-08-08T04:43:47.080Z,6.60
2017-08-08T04:46:14.159Z,6.00
2017-08-08T04:48:40.477Z,6.10
2017-08-08T04:51:07.522Z,5.80
2017-08-08T04:53:34.601Z,5.53
2017-08-08T04:56:00.926Z,6.25
2017-08-08T04:58:27.227Z,5.40
2017-08-08T05:00:53.650Z,5.53
2017-08-08T05:03:20.747Z,5.10
2017-08-08T05:05:47.047Z,5.15
2017-08-08T05:08:13.352Z,5.82
2017-08-08T05:10:39.683Z,5.20
2017-08-08T05:13:05.975Z,4.97
2017-08-08T05:15:32.269Z,4.97
2017-08-08T05:17:58.865Z,5.00
2017-08-08T05:20:25.959Z,5.10
2017-08-08T05:22:52.253Z,5.22
2017-08-08T05:25:18.560Z,4.72
2017-08-08T05:27:44.895Z,5.78
2017-08-08T05:30:11.179Z,6.00
2017-08-08T05:32:37.491Z,7.45
2017-08-08T05:35:03.835Z,5.75
2017-08-08T05:37:30.664Z,5.37
2017-08-08T05:39:57.015Z,7.10
2017-08-08T05:42:23.324Z,6.20
2017-08-08T05:44:49.701Z,6.75
2017-08-08T05:47:16.046Z,6.12
2017-08-08T05:49:42.331Z,7.22
2017-08-08T05:52:08.712Z,6.03
2017-08-08T05:54:35.065Z,7.10
2017-08-08T05:57:01.400Z,5.72
2017-08-08T05:59:27.780Z,7.75
2017-08-08T06:01:54.101Z,8.40
2017-08-08T06:04:20.482Z,6.30
2017-08-08T06:06:46.836Z,6.60
2017-08-08T06:09:13.148Z,6.78
2017-08-08T06:11:40.183Z,7.20
2017-08-08T06:14:06.510Z,6.90
2017-08-08T06:16:32.818Z,6.93
2017-08-08T06:18:59.160Z,7.30
2017-08-08T06:21:25.525Z,9.05
2017-08-08T06:23:52.708Z,7.15
2017-08-08T06:26:19.003Z,6.82
2017-08-08T06:28:46.051Z,7.15
2017-08-08T06:31:12.432Z,5.60
2017-08-08T06:33:38.824Z,6.82
2017-08-08T06:36:05.122Z,6.15
2017-08-08T06:38:31.442Z,6.10
2017-08-08T06:40:58.019Z,6.20
2017-08-08T06:43:25.111Z,6.55
2017-08-08T06:45:51.437Z,5.87
2017-08-08T06:48:17.748Z,6.30
2017-08-08T06:50:44.064Z,6.05
2017-08-08T06:53:10.415Z,6.00
2017-08-08T06:55:36.749Z,6.10
2017-08-08T06:58:03.048Z,6.93
2017-08-08T07:00:30.554Z,6.65
2017-08-08T07:02:56.937Z,10.45
2017-08-08T07:05:23.304Z,6.78
2017-08-08T07:07:49.671Z,7.05
2017-08-08T07:10:16.003Z,8.73
2017-08-08T07:12:43.057Z,7.10
2017-08-08T07:15:09.374Z,7.18
2017-08-08T07:17:35.680Z,7.00
2017-08-08T07:20:02.011Z,8.77
2017-08-08T07:22:28.336Z,15.55
2017-08-08T07:24:54.665Z,9.30
2017-08-08T07:27:21.021Z,8.55
2017-08-08T07:29:48.103Z,9.35
2017-08-08T07:32:14.433Z,9.65
2017-08-08T07:34:40.784Z,29.77
2017-08-08T07:37:07.153Z,7.30
2017-08-08T07:39:33.475Z,6.47
2017-08-08T07:41:59.797Z,6.95
2017-08-08T07:44:26.204Z,6.35
2017-08-08T07:46:52.521Z,8.45
2017-08-08T07:49:18.847Z,7.43
2017-08-08T07:51:45.145Z,6.45
2017-08-08T07:54:11.555Z,6.28
2017-08-08T07:56:37.908Z,6.25
2017-08-08T07:59:04.209Z,6.15
2017-08-08T08:01:30.677Z,5.37
2017-08-08T08:03:57.727Z,5.50
2017-08-08T08:06:24.056Z,4.10
2017-08-08T08:08:51.109Z,4.40
2017-08-08T08:11:18.149Z,5.05
2017-08-08T08:13:44.476Z,4.32
2017-08-08T08:16:10.779Z,4.10
2017-08-08T08:18:37.128Z,5.40
2017-08-08T08:21:03.432Z,3.22
2017-08-08T08:23:29.731Z,4.40
2017-08-08T08:25:56.096Z,3.20
2017-08-08T08:28:22.397Z,4.22
2017-08-08T08:30:48.739Z,4.30
2017-08-08T08:33:15.064Z,3.78
2017-08-08T08:35:41.379Z,3.53
2017-08-08T08:38:07.676Z,8.20
2017-08-08T08:40:34.037Z,5.55
2017-08-08T08:43:00.375Z,4.72
2017-08-08T08:45:26.675Z,4.20
2017-08-08T08:47:53.070Z,4.00
2017-08-08T08:50:19.371Z,3.90
2017-08-08T08:52:45.660Z,4.00
2017-08-08T08:55:11.984Z,3.50
2017-08-08T08:57:38.285Z,7.25
2017-08-08T09:00:04.601Z,3.60
2017-08-08T09:02:30.939Z,3.10
2017-08-08T09:04:57.304Z,3.25
2017-08-08T09:07:23.608Z,4.30
2017-08-08T09:09:49.903Z,5.75
2017-08-08T09:12:16.240Z,3.92
2017-08-08T09:14:42.544Z,2.97
2017-08-08T09:17:09.616Z,3.22
2017-08-08T09:19:35.916Z,3.62
2017-08-08T09:22:02.976Z,3.80
2017-08-08T09:24:30.005Z,3.70
2017-08-08T09:26:57.106Z,3.80
2017-08-08T09:29:23.451Z,4.00
2017-08-08T09:31:49.816Z,5.22
2017-08-08T09:34:16.070Z,4.03
2017-08-08T09:36:42.456Z,4.78
2017-08-08T09:39:08.803Z,6.35
2017-08-08T09:41:35.125Z,4.50
2017-08-08T09:44:01.435Z,5.10
2017-08-08T09:46:27.852Z,4.75
2017-08-08T09:48:54.204Z,4.40
2017-08-08T09:51:20.542Z,6.18
2017-08-08T09:53:46.916Z,4.90
2017-08-08T09:56:13.224Z,5.50
2017-08-08T09:58:39.563Z,4.75
2017-08-08T10:01:06.623Z,4.65
2017-08-08T10:03:32.932Z,5.40
2017-08-08T10:06:00.007Z,4.10
2017-08-08T10:08:26.315Z,5.28
2017-08-08T10:10:52.619Z,4.25
2017-08-08T10:13:18.970Z,4.90
2017-08-08T10:15:46.050Z,4.93
2017-08-08T10:18:12.376Z,5.07
2017-08-08T10:20:38.666Z,3.62
2017-08-08T10:23:04.989Z,3.90
2017-08-08T10:25:31.290Z,3.60
2017-08-08T10:27:57.643Z,3.28
2017-08-08T10:30:23.984Z,5.47
2017-08-08T10:32:50.304Z,2.72
2017-08-08T10:35:16.656Z,2.80
2017-08-08T10:37:42.947Z,5.03
2017-08-08T10:40:09.248Z,4.37
2017-08-08T10:42:35.563Z,4.05
2017-08-08T10:45:01.881Z,3.65
2017-08-08T10:47:28.247Z,2.85
2017-08-08T10:49:54.561Z,2.70
2017-08-08T10:52:20.879Z,2.70
2017-08-08T10:54:47.323Z,3.33
2017-08-08T10:57:13.664Z,2.35
2017-08-08T10:59:39.980Z,3.95
2017-08-08T11:02:06.303Z,2.95
2017-08-08T11:04:32.601Z,3.30
2017-08-08T11:06:58.915Z,3.05
2017-08-08T11:09:25.335Z,5.25
2017-08-08T11:11:51.643Z,3.97
2017-08-08T11:14:17.956Z,2.65
2017-08-08T11:16:44.346Z,2.53
2017-08-08T11:19:11.507Z,2.42
2017-08-08T11:21:38.667Z,1.77
2017-08-08T11:24:05.773Z,2.30
2017-08-08T11:26:32.064Z,1.70
2017-08-08T11:28:58.377Z,1.70
2017-08-08T11:31:25.430Z,1.98
2017-08-08T11:33:52.483Z,2.35
2017-08-08T11:36:19.284Z,2.92
2017-08-08T11:38:45.607Z,2.25
2017-08-08T11:41:11.932Z,2.37
2017-08-08T11:43:38.242Z,1.37
2017-08-08T11:46:04.684Z,3.60
2017-08-08T11:48:31.002Z,2.50
2017-08-08T11:50:57.419Z,1.85
2017-08-08T11:53:23.731Z,2.20
2017-08-08T11:55:50.780Z,2.20
2017-08-08T11:58:17.835Z,1.65
2017-08-08T12:00:44.171Z,1.85
2017-08-08T12:03:10.541Z,2.10
2017-08-08T12:05:36.844Z,2.35
2017-08-08T12:08:03.148Z,2.65
2017-08-08T12:10:30.232Z,2.28
2017-08-08T12:12:56.584Z,1.30
2017-08-08T12:15:22.912Z,1.67
2017-08-08T12:17:49.262Z,2.33
2017-08-08T12:20:16.312Z,1.80
2017-08-08T12:22:42.623Z,2.45
2017-08-08T12:25:08.944Z,1.85
2017-08-08T12:27:35.272Z,1.55
2017-08-08T12:30:01.606Z,1.50
2017-08-08T12:32:28.796Z,1.30
2017-08-08T12:34:55.850Z,1.85
2017-08-08T12:37:22.180Z,2.12
2017-08-08T12:39:48.515Z,1.65
2017-08-08T12:42:15.548Z,1.85
2017-08-08T12:44:41.879Z,2.55
2017-08-08T12:47:08.183Z,1.90
2017-08-08T12:49:34.500Z,2.33
2017-08-08T12:52:00.848Z,1.62
2017-08-08T12:54:27.430Z,3.37
2017-08-08T12:56:53.722Z,1.42
2017-08-08T12:59:20.044Z,2.47
2017-08-08T13:01:46.353Z,1.08
2017-08-08T13:04:12.705Z,1.10
2017-08-08T13:06:39.013Z,1.10
2017-08-08T13:09:05.311Z,1.20
2017-08-08T13:11:31.650Z,3.45
2017-08-08T13:13:57.975Z,2.78
2017-08-08T13:16:24.321Z,2.95
2017-08-08T13:18:50.607Z,1.65
2017-08-08T13:21:16.935Z,2.42
2017-08-08T13:23:43.251Z,1.98
2017-08-08T13:26:09.556Z,1.23
2017-08-08T13:28:35.959Z,1.58
2017-08-08T13:31:02.271Z,1.62
2017-08-08T13:33:28.612Z,1.75
2017-08-08T13:35:54.931Z,1.73
2017-08-08T13:38:22.026Z,1.00
2017-08-08T13:40:48.368Z,2.85
2017-08-08T13:43:14.676Z,1.40
2017-08-08T13:45:40.984Z,1.92
2017-08-08T13:48:07.271Z,2.58
2017-08-08T13:50:33.572Z,2.33
2017-08-08T13:52:59.875Z,2.45
2017-08-08T13:55:26.211Z,1.50
2017-08-08T13:57:53.319Z,2.10
2017-08-08T14:00:20.387Z,3.20
2017-08-08T14:02:46.715Z,2.10
2017-08-08T14:05:13.031Z,4.32
2017-08-08T14:07:40.064Z,3.65
2017-08-08T14:10:06.400Z,1.27
2017-08-08T14:12:33.440Z,3.92
2017-08-08T14:14:59.741Z,1.48
2017-08-08T14:17:26.085Z,1.80
2017-08-08T14:19:52.449Z,1.30
2017-08-08T14:22:18.759Z,1.02
2017-08-08T14:24:45.147Z,1.27
2017-08-08T14:27:11.439Z,1.40
2017-08-08T14:29:38.522Z,1.55
2017-08-08T14:32:04.893Z,5.30
2017-08-08T14:34:31.972Z,1.60
2017-08-08T14:36:58.284Z,1.20
2017-08-08T14:39:24.604Z,1.60
2017-08-08T14:41:50.912Z,1.27
2017-08-08T14:44:17.244Z,1.30
2017-08-08T14:46:43.548Z,2.37
2017-08-08T14:49:09.855Z,1.48
2017-08-08T14:51:37.156Z,1.20
2017-08-08T14:54:03.468Z,1.20
2017-08-08T14:56:29.772Z,1.55
2017-08-08T14:58:56.127Z,1.40
2017-08-08T15:01:22.449Z,1.40
2017-08-08T15:03:48.836Z,1.35
2017-08-08T15:06:15.995Z,2.40
2017-08-08T15:08:43.039Z,1.58
2017-08-08T15:11:09.331Z,1.80
2017-08-08T15:13:35.667Z,2.90
2017-08-08T15:16:01.963Z,1.92
2017-08-08T15:18:28.236Z,2.28
2017-08-08T15:20:54.563Z,2.67
2017-08-08T15:23:20.856Z,1.75
2017-08-08T15:25:47.157Z,2.12
2017-08-08T15:28:13.488Z,3.17
2017-08-08T15:30:39.839Z,5.40
2017-08-08T15:33:06.191Z,2.70
2017-08-08T15:35:32.496Z,1.98
2017-08-08T15:37:58.819Z,2.50
2017-08-08T15:40:25.165Z,2.70
2017-08-08T15:42:51.619Z,3.53
2017-08-08T15:45:17.936Z,1.98
2017-08-08T15:47:44.256Z,2.22
2017-08-08T15:50:10.536Z,1.87
2017-08-08T15:52:36.842Z,2.00
2017-08-08T15:55:03.200Z,3.42
2017-08-08T15:57:30.251Z,1.92
2017-08-08T15:59:57.303Z,1.87
2017-08-08T16:02:23.619Z,2.22
2017-08-08T16:04:49.960Z,1.45
2017-08-08T16:07:16.247Z,6.32
2017-08-08T16:09:42.586Z,3.15
2017-08-08T16:12:08.966Z,1.98
2017-08-08T16:14:35.273Z,1.90
2017-08-08T16:17:01.653Z,2.35
2017-08-08T16:19:27.983Z,1.92
2017-08-08T16:21:54.304Z,1.65
2017-08-08T16:24:20.656Z,1.60
2017-08-08T16:26:46.968Z,2.60
2017-08-08T16:29:13.276Z,1.90
2017-08-08T16:31:39.632Z,2.45
2017-08-08T16:34:05.920Z,2.30
2017-08-08T16:36:32.240Z,1.75
2017-08-08T16:38:58.637Z,1.50
2017-08-08T16:41:25.735Z,1.77
2017-08-08T16:43:52.067Z,1.70
2017-08-08T16:46:18.438Z,1.62
2017-08-08T16:48:44.756Z,1.70
2017-08-08T16:51:11.076Z,2.12
2017-08-08T16:53:37.374Z,2.35
2017-08-08T16:56:04.456Z,1.85
2017-08-08T16:58:30.760Z,1.70
2017-08-08T17:00:57.085Z,1.95
2017-08-08T17:03:24.468Z,2.53
2017-08-08T17:05:51.505Z,1.80
2017-08-08T17:08:18.592Z,3.72
2017-08-08T17:10:44.926Z,1.70
2017-08-08T17:13:11.280Z,1.60
2017-08-08T17:15:37.602Z,1.67
2017-08-08T17:18:03.920Z,2.85
2017-08-08T17:20:30.253Z,3.72
2017-08-08T17:22:56.543Z,2.47
2017-08-08T17:25:22.858Z,2.42
2017-08-08T17:27:49.942Z,1.83
2017-08-08T17:30:16.290Z,2.50
2017-08-08T17:32:42.603Z,3.20
2017-08-08T17:35:08.966Z,3.92
2017-08-08T17:37:35.377Z,1.95
2017-08-08T17:40:01.706Z,1.50
2017-08-08T17:42:28.101Z,2.20
2017-08-08T17:44:54.415Z,1.50
2017-08-08T17:47:21.461Z,1.70
2017-08-08T17:49:47.791Z,2.50
2017-08-08T17:52:14.092Z,3.00
2017-08-08T17:54:40.443Z,3.08
2017-08-08T17:57:06.815Z,1.90
2017-08-08T17:59:33.135Z,1.73
2017-08-08T18:01:59.472Z,1.52
2017-08-08T18:04:25.809Z,1.90
2017-08-08T18:06:52.192Z,1.52
2017-08-08T18:09:18.512Z,2.20
2017-08-08T18:11:44.827Z,1.48
2017-08-08T18:14:11.161Z,1.60
2017-08-08T18:16:37.469Z,2.25
2017-08-08T18:19:03.844Z,1.60
2017-08-08T18:21:30.152Z,3.75
2017-08-08T18:23:56.500Z,2.20
2017-08-08T18:26:22.817Z,3.25
2017-08-08T18:28:49.144Z,3.17
2017-08-08T18:31:15.517Z,1.90
2017-08-08T18:33:41.902Z,2.53
2017-08-08T18:36:08.196Z,2.80
2017-08-08T18:38:34.500Z,2.30
2017-08-08T18:41:01.592Z,2.28
2017-08-08T18:43:27.934Z,2.08
2017-08-08T18:45:54.231Z,1.95
2017-08-08T18:48:20.575Z,2.00
2017-08-08T18:50:46.871Z,2.15
2017-08-08T18:53:13.917Z,2.28
2017-08-08T18:55:40.999Z,4.50
2017-08-08T18:58:07.319Z,2.12
2017-08-08T19:00:33.718Z,2.00
2017-08-08T19:03:00.141Z,1.80
2017-08-08T19:05:26.470Z,2.20
2017-08-08T19:07:52.839Z,2.62
2017-08-08T19:10:19.192Z,1.60
2017-08-08T19:12:45.482Z,2.42
2017-08-08T19:15:11.787Z,4.85
2017-08-08T19:17:38.896Z,2.00
2017-08-08T19:20:05.250Z,1.83
2017-08-08T19:22:32.340Z,1.70
2017-08-08T19:24:58.789Z,1.80
2017-08-08T19:27:25.210Z,2.62
2017-08-08T19:29:51.679Z,2.15
2017-08-08T19:32:18.058Z,1.75
2017-08-08T19:34:45.109Z,2.78
2017-08-08T19:37:12.167Z,2.00
2017-08-08T19:39:39.269Z,1.85
2017-08-08T19:42:05.745Z,1.77
2017-08-08T19:44:32.077Z,1.80
2017-08-08T19:46:58.490Z,1.90
2017-08-08T19:49:25.829Z,2.28
2017-08-08T19:51:53.194Z,4.85
2017-08-08T19:54:19.933Z,2.00
2017-08-08T19:56:46.611Z,1.80
2017-08-08T19:59:13.237Z,2.10
2017-08-08T20:01:39.900Z,1.80
2017-08-08T20:04:06.504Z,2.40
2017-08-08T20:06:33.202Z,3.62
2017-08-08T20:08:59.837Z,1.90
2017-08-08T20:11:26.481Z,2.30
2017-08-08T20:13:53.065Z,2.20
2017-08-08T20:16:19.647Z,1.95
2017-08-08T20:18:46.192Z,2.05
2017-08-08T20:21:13.359Z,2.10
2017-08-08T20:23:40.540Z,2.00
2017-08-08T20:26:06.931Z,2.05
2017-08-08T20:28:33.283Z,2.33
2017-08-08T20:31:00.324Z,1.90
2017-08-08T20:33:26.661Z,1.90
2017-08-08T20:35:52.992Z,2.20
2017-08-08T20:38:20.067Z,3.00
2017-08-08T20:40:46.385Z,1.95
2017-08-08T20:43:13.520Z,2.40
2017-08-08T20:45:40.568Z,2.55
2017-08-08T20:48:07.612Z,2.42
2017-08-08T20:50:34.709Z,2.37
2017-08-08T20:53:01.005Z,3.15
2017-08-08T20:55:27.318Z,2.70
2017-08-08T20:57:53.652Z,5.12
2017-08-08T21:00:20.743Z,3.10
2017-08-08T21:02:47.049Z,2.37
2017-08-08T21:05:13.430Z,2.55
2017-08-08T21:07:39.732Z,3.15
2017-08-08T21:10:06.057Z,2.60
2017-08-08T21:12:32.388Z,2.35
2017-08-08T21:14:58.704Z,2.85
2017-08-08T21:17:25.015Z,2.70
2017-08-08T21:19:52.097Z,2.97
2017-08-08T21:22:18.448Z,2.72
2017-08-08T21:24:44.750Z,2.70
2017-08-08T21:27:12.080Z,3.70
2017-08-08T21:29:39.136Z,2.65
2017-08-08T21:32:05.427Z,3.00
2017-08-08T21:34:31.755Z,2.70
2017-08-08T21:36:58.074Z,2.35
2017-08-08T21:39:24.428Z,2.83
2017-08-08T21:41:50.725Z,4.10
2017-08-08T21:44:17.033Z,3.08
2017-08-08T21:46:43.388Z,2.92
2017-08-08T21:49:09.684Z,2.78
2017-08-08T21:51:36.041Z,3.47
2017-08-08T21:54:02.611Z,3.00
2017-08-08T21:56:28.936Z,3.53
2017-08-08T21:58:55.252Z,3.50
2017-08-08T22:01:21.564Z,4.43
2017-08-08T22:03:47.908Z,4.03
2017-08-08T22:06:14.225Z,4.35
2017-08-08T22:08:40.512Z,4.22
2017-08-08T22:11:06.833Z,5.00
2017-08-08T22:13:33.864Z,3.80
2017-08-08T22:16:00.195Z,4.05
2017-08-08T22:18:27.912Z,4.03
2017-08-08T22:20:54.243Z,4.82
2017-08-08T22:23:20.624Z,4.60
2017-08-08T22:25:46.927Z,3.97
2017-08-08T22:28:13.259Z,3.78
2017-08-08T22:30:39.561Z,4.05
2017-08-08T22:33:05.886Z,3.97
2017-08-08T22:35:32.243Z,4.03
2017-08-08T22:37:58.548Z,4.10
2017-08-08T22:40:24.927Z,3.58
2017-08-08T22:42:51.276Z,4.15
2017-08-08T22:45:18.312Z,3.40
2017-08-08T22:47:44.623Z,4.07
2017-08-08T22:50:10.939Z,3.40
2017-08-08T22:52:37.283Z,2.85
2017-08-08T22:55:03.637Z,4.18
2017-08-08T22:57:29.915Z,3.40
2017-08-08T22:59:56.206Z,3.80
2017-08-08T23:02:23.291Z,4.05
2017-08-08T23:04:49.654Z,4.28
2017-08-08T23:07:16.021Z,4.60
2017-08-08T23:09:42.347Z,3.75
2017-08-08T23:12:09.396Z,4.40
2017-08-08T23:14:35.735Z,5.10
2017-08-08T23:17:02.064Z,4.20
2017-08-08T23:19:28.368Z,3.95
2017-08-08T23:21:55.472Z,4.03
2017-08-08T23:24:21.823Z,4.72
2017-08-08T23:26:48.973Z,4.95
2017-08-08T23:29:15.314Z,5.20
2017-08-08T23:31:41.655Z,4.90
2017-08-08T23:34:07.963Z,5.30
2017-08-08T23:36:34.276Z,5.70
2017-08-08T23:39:00.643Z,7.28
2017-08-08T23:41:27.004Z,5.40
2017-08-08T23:43:53.583Z,4.95
2017-08-08T23:46:19.888Z,6.72
2017-08-08T23:48:46.233Z,5.20
2017-08-08T23:51:12.667Z,5.65
2017-08-08T23:53:38.972Z,6.07
2017-08-08T23:56:05.263Z,6.30
2017-08-08T23:58:31.612Z,5.90
